This is the latest recevied weather packets stored in our database for station/object OM6ABF-12. If no packets are shown the sender has not sent any weather packets the latest 10 day(s).
| Time | Temp. | Humidity | Pressure | Rain* | Wind** | Luminosity | Snow |
|---|---|---|---|---|---|---|---|
| 1777289311 | 10.56° C | 26% | 1029.9 hPa | - | - | - | - |
| 1777288350 | 11.11° C | 26% | 1030 hPa | - | - | - | - |
| 1777287391 | 9.44° C | 28% | 1030.1 hPa | - | - | - | - |
| 1777286435 | 9.44° C | 30% | 1030.2 hPa | - | - | - | - |
| 1777285478 | 10° C | 30% | 1030.2 hPa | - | - | - | - |
| 1777284522 | 10° C | 29% | 1030.3 hPa | - | - | - | - |
| 1777283564 | 9.44° C | 30% | 1030.4 hPa | - | - | - | - |
| 1777282608 | 10° C | 29% | 1030.6 hPa | - | - | - | - |
| 1777281651 | 9.44° C | 28% | 1030.7 hPa | - | - | - | - |
| 1777280695 | 9.44° C | 29% | 1030.9 hPa | - | - | - | - |
| 1777279736 | 9.44° C | 27% | 1030.9 hPa | - | - | - | - |
| 1777278780 | 9.44° C | 28% | 1031 hPa | - | - | - | - |
| 1777277823 | 8.89° C | 27% | 1030.9 hPa | - | - | - | - |
| 1777276863 | 8.89° C | 26% | 1031 hPa | - | - | - | - |
| 1777275907 | 8.33° C | 28% | 1030.9 hPa | - | - | - | - |
| 1777274950 | 6.11° C | 31% | 1030.9 hPa | - | - | - | - |
| 1777273994 | 6.11° C | 31% | 1030.9 hPa | - | - | - | - |
| 1777273034 | 6.11° C | 31% | 1031 hPa | - | - | - | - |
| 1777272075 | 3.89° C | 33% | 1031.1 hPa | - | - | - | - |
| 1777271114 | 4.44° C | 32% | 1031 hPa | - | - | - | - |
| 1777270155 | 2.22° C | 38% | 1031.1 hPa | - | - | - | - |
| 1777269197 | 1.11° C | 38% | 1031 hPa | - | - | - | - |
| 1777268241 | 0.56° C | 39% | 1030.9 hPa | - | - | - | - |
| 1777267284 | 0.56° C | 39% | 1030.9 hPa | - | - | - | - |
| 1777266328 | 0.56° C | 38% | 1030.9 hPa | - | - | - | - |
* Rain since midnight (hover to see other rain measurements)
** Current wind speed in m/s (hover to see current wind gust speed)